createdAt,value
2023-01-09T00:01:02.217Z,22.29
2023-01-09T00:03:29.138Z,24.26
2023-01-09T00:05:56.235Z,23.27
2023-01-09T00:08:23.430Z,23.88
2023-01-09T00:10:50.699Z,23.26
2023-01-09T00:13:18.428Z,23.52
2023-01-09T00:15:45.452Z,22.03
2023-01-09T00:18:12.898Z,25.36
2023-01-09T00:20:39.650Z,24.57
2023-01-09T00:23:06.512Z,23.62
2023-01-09T00:25:33.787Z,25.39
2023-01-09T00:28:00.527Z,26.09
2023-01-09T00:30:28.043Z,23.11
2023-01-09T00:32:55.538Z,23.20
2023-01-09T00:35:24.483Z,24.01
2023-01-09T00:37:51.188Z,23.15
2023-01-09T00:40:19.085Z,25.71
2023-01-09T00:42:50.411Z,27.77
2023-01-09T00:45:29.070Z,25.20
2023-01-09T00:48:04.022Z,24.19
2023-01-09T00:50:33.807Z,22.81
2023-01-09T00:53:06.718Z,22.92
2023-01-09T00:55:35.746Z,22.08
2023-01-09T00:58:03.591Z,22.36
2023-01-09T01:00:30.627Z,21.98
2023-01-09T01:02:57.648Z,21.67
2023-01-09T01:05:43.263Z,22.74
2023-01-09T01:08:12.268Z,23.82
2023-01-09T01:10:39.608Z,24.64
2023-01-09T01:13:06.487Z,24.80
2023-01-09T01:15:33.894Z,24.63
2023-01-09T01:18:00.773Z,22.72
2023-01-09T01:20:27.834Z,22.44
2023-01-09T01:22:54.952Z,22.17
2023-01-09T01:25:22.092Z,25.55
2023-01-09T01:27:49.351Z,23.34
2023-01-09T01:30:18.944Z,22.79
2023-01-09T01:32:45.732Z,26.98
2023-01-09T01:35:13.594Z,28.10
2023-01-09T01:37:40.564Z,28.64
2023-01-09T01:40:10.863Z,26.13
2023-01-09T01:42:37.676Z,24.93
2023-01-09T01:45:19.424Z,24.49
2023-01-09T01:48:09.416Z,23.43
2023-01-09T01:51:04.331Z,24.96
2023-01-09T01:53:35.348Z,22.82
2023-01-09T01:56:17.258Z,25.73
2023-01-09T01:59:13.958Z,27.64
2023-01-09T02:01:44.230Z,26.70
2023-01-09T02:04:12.753Z,24.79
2023-01-09T02:06:40.226Z,24.46
2023-01-09T02:09:07.774Z,24.53
2023-01-09T02:11:35.080Z,23.37
2023-01-09T02:14:02.983Z,26.73
2023-01-09T02:16:48.175Z,25.73
2023-01-09T02:19:42.069Z,29.21
2023-01-09T02:22:40.747Z,25.47
2023-01-09T02:25:40.888Z,27.64
2023-01-09T02:28:23.673Z,26.07
2023-01-09T02:30:56.184Z,26.49
2023-01-09T02:33:44.471Z,26.69
2023-01-09T02:36:34.663Z,26.75
2023-01-09T02:39:31.212Z,25.09
2023-01-09T02:42:06.011Z,26.55
2023-01-09T02:44:36.849Z,26.13
2023-01-09T02:47:07.493Z,28.13
2023-01-09T02:49:37.924Z,26.74
2023-01-09T02:52:22.984Z,26.00
2023-01-09T02:55:05.114Z,26.99
2023-01-09T02:57:34.929Z,25.69
2023-01-09T03:00:25.901Z,25.92
2023-01-09T03:02:52.606Z,28.47
2023-01-09T03:05:26.417Z,25.42
2023-01-09T03:08:01.034Z,24.91
2023-01-09T03:10:30.392Z,23.61
2023-01-09T03:13:00.682Z,25.71
2023-01-09T03:15:32.353Z,25.54
2023-01-09T03:18:01.050Z,25.62
2023-01-09T03:20:29.552Z,24.20
2023-01-09T03:22:58.594Z,27.13
2023-01-09T03:25:28.595Z,30.35
2023-01-09T03:28:05.616Z,27.27
2023-01-09T03:30:35.311Z,26.17
2023-01-09T03:33:02.564Z,28.19
2023-01-09T03:35:29.955Z,24.74
2023-01-09T03:37:56.631Z,26.29
2023-01-09T03:40:23.406Z,25.26
2023-01-09T03:42:50.665Z,23.91
2023-01-09T03:45:17.437Z,25.55
2023-01-09T03:47:44.850Z,24.45
2023-01-09T03:50:11.703Z,26.27
2023-01-09T03:52:38.400Z,26.41
2023-01-09T03:55:05.922Z,30.50
2023-01-09T03:57:32.651Z,29.77
2023-01-09T04:00:00.075Z,27.39
2023-01-09T04:02:26.785Z,27.43
2023-01-09T04:04:53.465Z,25.81
2023-01-09T04:07:20.795Z,26.96
2023-01-09T04:09:47.447Z,27.13
2023-01-09T04:12:14.916Z,28.69
2023-01-09T04:14:41.651Z,27.55
2023-01-09T04:17:08.324Z,25.24
2023-01-09T04:19:35.767Z,25.93
2023-01-09T04:22:02.538Z,26.25
2023-01-09T04:24:29.223Z,29.22
2023-01-09T04:26:56.533Z,26.42
2023-01-09T04:29:23.264Z,26.87
2023-01-09T04:31:50.032Z,25.51
2023-01-09T04:34:16.875Z,29.33
2023-01-09T04:36:44.231Z,26.22
2023-01-09T04:39:11.177Z,27.58
2023-01-09T04:41:49.949Z,27.79
2023-01-09T04:44:18.453Z,26.41
2023-01-09T04:46:46.025Z,28.29
2023-01-09T04:49:13.123Z,28.85
2023-01-09T04:51:40.177Z,27.19
2023-01-09T04:54:07.494Z,27.89
2023-01-09T04:56:34.892Z,28.84
2023-01-09T04:59:01.810Z,29.02
2023-01-09T05:01:29.236Z,28.95
2023-01-09T05:03:56.452Z,28.43
2023-01-09T05:06:23.259Z,28.85
2023-01-09T05:08:50.135Z,28.76
2023-01-09T05:11:16.985Z,30.04
2023-01-09T05:13:44.410Z,28.81
2023-01-09T05:16:11.548Z,29.25
2023-01-09T05:18:38.317Z,29.17
2023-01-09T05:21:05.145Z,30.62
2023-01-09T05:23:31.844Z,30.04
2023-01-09T05:25:58.628Z,31.28
2023-01-09T05:28:26.154Z,30.82
2023-01-09T05:30:53.038Z,30.76
2023-01-09T05:33:20.128Z,35.39
2023-01-09T05:35:47.019Z,34.17
2023-01-09T05:38:13.730Z,33.09
2023-01-09T05:40:42.414Z,31.12
2023-01-09T05:43:09.205Z,31.78
2023-01-09T05:45:36.602Z,31.81
2023-01-09T05:48:03.476Z,33.28
2023-01-09T05:50:30.801Z,32.21
2023-01-09T05:52:57.572Z,30.82
2023-01-09T05:55:24.293Z,31.94
2023-01-09T05:57:51.726Z,31.61
2023-01-09T06:00:19.136Z,32.60
2023-01-09T06:02:46.361Z,33.79
2023-01-09T06:05:13.218Z,32.64
2023-01-09T06:07:40.875Z,32.52
2023-01-09T06:10:13.107Z,32.85
2023-01-09T06:12:40.675Z,33.22
2023-01-09T06:15:09.151Z,31.21
2023-01-09T06:17:36.945Z,30.11
2023-01-09T06:20:04.236Z,31.48
2023-01-09T06:22:31.322Z,31.57
2023-01-09T06:24:58.055Z,29.52
2023-01-09T06:27:24.896Z,30.24
2023-01-09T06:29:51.902Z,29.27
2023-01-09T06:32:18.637Z,33.68
2023-01-09T06:34:46.066Z,31.64
2023-01-09T06:37:12.825Z,34.03
2023-01-09T06:39:39.574Z,33.28
2023-01-09T06:42:07.042Z,30.19
2023-01-09T06:44:37.125Z,30.91
2023-01-09T06:47:04.659Z,32.39
2023-01-09T06:49:31.540Z,32.40
2023-01-09T06:51:58.361Z,31.62
2023-01-09T06:54:26.468Z,31.89
2023-01-09T06:56:54.687Z,30.95
2023-01-09T06:59:21.456Z,32.00
2023-01-09T07:01:48.644Z,30.53
2023-01-09T07:04:15.606Z,32.38
2023-01-09T07:06:43.069Z,32.55
2023-01-09T07:09:13.463Z,31.06
2023-01-09T07:11:41.489Z,29.24
2023-01-09T07:14:08.537Z,29.80
2023-01-09T07:16:36.171Z,29.92
2023-01-09T07:19:02.990Z,30.87
2023-01-09T07:21:32.732Z,30.60
2023-01-09T07:24:00.721Z,30.68
2023-01-09T07:26:27.805Z,30.77
2023-01-09T07:28:54.728Z,31.45
2023-01-09T07:31:21.677Z,30.83
2023-01-09T07:33:48.514Z,30.57
2023-01-09T07:36:15.886Z,32.25
2023-01-09T07:38:42.849Z,31.15
2023-01-09T07:41:09.800Z,31.67
2023-01-09T07:43:38.168Z,29.61
2023-01-09T07:46:05.428Z,28.88
2023-01-09T07:48:33.085Z,29.60
2023-01-09T07:50:59.938Z,30.63
2023-01-09T07:53:27.893Z,31.02
2023-01-09T07:55:54.608Z,31.63
2023-01-09T07:58:21.749Z,31.48
2023-01-09T08:00:48.466Z,29.51
2023-01-09T08:03:16.076Z,29.65
2023-01-09T08:05:43.241Z,30.65
2023-01-09T08:08:09.975Z,29.34
2023-01-09T08:10:36.808Z,29.39
2023-01-09T08:13:03.548Z,28.12
2023-01-09T08:15:31.169Z,28.58
2023-01-09T08:17:58.104Z,29.93
2023-01-09T08:20:25.031Z,29.96
2023-01-09T08:22:53.620Z,29.18
2023-01-09T08:25:20.709Z,31.10
2023-01-09T08:27:48.069Z,29.26
2023-01-09T08:30:16.406Z,29.59
2023-01-09T08:32:43.892Z,31.85
2023-01-09T08:35:10.777Z,28.59
2023-01-09T08:37:37.938Z,27.99
2023-01-09T08:40:05.748Z,27.78
2023-01-09T08:42:51.324Z,28.02
2023-01-09T08:45:37.735Z,27.58
2023-01-09T08:48:04.812Z,28.11
2023-01-09T08:50:32.527Z,28.51
2023-01-09T08:52:59.521Z,27.11
2023-01-09T08:55:26.482Z,26.63
2023-01-09T08:57:55.075Z,27.45
2023-01-09T09:00:24.828Z,27.72
2023-01-09T09:02:57.697Z,28.41
2023-01-09T09:05:26.245Z,26.93
2023-01-09T09:07:54.955Z,25.47
2023-01-09T09:10:23.896Z,27.30
2023-01-09T09:12:52.746Z,27.08
2023-01-09T09:15:26.340Z,24.34
2023-01-09T09:17:55.952Z,27.24
2023-01-09T09:20:25.551Z,25.72
2023-01-09T09:22:53.001Z,25.18
2023-01-09T09:25:21.117Z,27.26
2023-01-09T09:27:48.835Z,27.09
2023-01-09T09:30:18.196Z,27.15
2023-01-09T09:32:45.633Z,27.24
2023-01-09T09:35:14.480Z,25.22
2023-01-09T09:37:42.003Z,25.57
2023-01-09T09:40:20.995Z,25.90
2023-01-09T09:43:07.025Z,27.64
2023-01-09T09:45:55.623Z,24.96
2023-01-09T09:48:31.543Z,23.39
2023-01-09T09:51:13.168Z,25.15
2023-01-09T09:54:03.855Z,26.43
2023-01-09T09:56:36.576Z,26.37
2023-01-09T09:59:15.614Z,26.73
2023-01-09T10:01:48.701Z,25.07
2023-01-09T10:04:18.523Z,26.55
2023-01-09T10:06:50.209Z,25.20
2023-01-09T10:09:39.606Z,24.87
2023-01-09T10:12:29.740Z,24.88
2023-01-09T10:15:03.287Z,24.30
2023-01-09T10:17:55.883Z,26.16
2023-01-09T10:20:34.990Z,25.70
2023-01-09T10:23:14.777Z,24.85
2023-01-09T10:26:01.864Z,26.04
2023-01-09T10:28:38.373Z,25.06
2023-01-09T10:31:35.308Z,25.57
2023-01-09T10:34:08.506Z,23.54
2023-01-09T10:36:48.832Z,25.62
2023-01-09T10:39:25.544Z,24.70
2023-01-09T10:41:58.424Z,24.57
2023-01-09T10:44:38.781Z,23.31
2023-01-09T10:47:26.070Z,24.49
2023-01-09T10:49:54.863Z,25.19
2023-01-09T10:52:28.089Z,24.38
2023-01-09T10:55:17.121Z,23.32
2023-01-09T10:57:48.113Z,24.52
2023-01-09T11:00:19.108Z,24.28
2023-01-09T11:02:47.346Z,23.55
2023-01-09T11:05:19.690Z,23.98
2023-01-09T11:07:51.218Z,24.37
2023-01-09T11:10:19.049Z,22.70
2023-01-09T11:12:45.843Z,23.85
2023-01-09T11:15:23.969Z,22.72
2023-01-09T11:17:51.807Z,24.04
2023-01-09T11:20:22.993Z,22.74
2023-01-09T11:22:52.793Z,23.10
2023-01-09T11:25:21.748Z,22.86
2023-01-09T11:28:18.373Z,22.20
2023-01-09T11:31:04.576Z,24.07
2023-01-09T11:33:36.370Z,23.96
2023-01-09T11:36:08.289Z,24.65
2023-01-09T11:38:54.105Z,21.46
2023-01-09T11:41:34.638Z,21.65
2023-01-09T11:44:04.549Z,24.04
2023-01-09T11:46:34.401Z,23.60
2023-01-09T11:49:02.713Z,23.80
2023-01-09T11:51:32.572Z,23.61
2023-01-09T11:54:36.466Z,23.11
2023-01-09T11:57:03.976Z,21.99
2023-01-09T11:59:31.574Z,22.51
2023-01-09T12:02:23.355Z,21.15
2023-01-09T12:05:31.878Z,23.75
2023-01-09T12:08:14.263Z,22.55
2023-01-09T12:11:19.083Z,23.37
2023-01-09T12:13:55.836Z,22.32
2023-01-09T12:16:43.937Z,21.88
2023-01-09T12:19:34.899Z,21.47
2023-01-09T12:22:19.116Z,23.47
2023-01-09T12:24:49.049Z,21.65
2023-01-09T12:27:24.818Z,21.19
2023-01-09T12:30:19.172Z,21.95
2023-01-09T12:32:54.542Z,21.63
2023-01-09T12:35:33.183Z,21.51
2023-01-09T12:38:14.076Z,22.99
2023-01-09T12:41:00.173Z,22.55
2023-01-09T12:43:39.854Z,23.21
2023-01-09T12:46:21.736Z,24.08
2023-01-09T12:49:16.427Z,22.77
2023-01-09T12:52:08.077Z,21.79
2023-01-09T12:54:47.336Z,20.30
2023-01-09T12:57:22.150Z,21.97
2023-01-09T13:00:00.480Z,20.80
2023-01-09T13:03:12.856Z,21.69
2023-01-09T13:05:50.314Z,21.29
2023-01-09T13:08:39.218Z,20.25
2023-01-09T13:11:25.105Z,21.74
2023-01-09T13:14:01.891Z,23.01
2023-01-09T13:16:41.762Z,20.64
2023-01-09T13:19:34.804Z,22.25
2023-01-09T13:22:05.815Z,21.63
2023-01-09T13:24:39.201Z,21.00
2023-01-09T13:27:11.888Z,20.67
2023-01-09T13:29:45.821Z,23.53
2023-01-09T13:32:27.846Z,21.67
2023-01-09T13:34:57.779Z,23.05
2023-01-09T13:37:29.963Z,21.51
2023-01-09T13:40:02.563Z,21.13
2023-01-09T13:42:36.028Z,20.69
2023-01-09T13:45:24.587Z,20.54
2023-01-09T13:48:19.951Z,21.47
2023-01-09T13:50:48.365Z,21.98
2023-01-09T13:53:18.709Z,22.22
2023-01-09T13:55:58.447Z,22.87
2023-01-09T13:58:27.768Z,21.01
2023-01-09T14:00:57.549Z,22.07
2023-01-09T14:03:33.287Z,21.83
2023-01-09T14:06:00.215Z,22.39
2023-01-09T14:08:29.590Z,22.78
2023-01-09T14:11:01.131Z,23.41
2023-01-09T14:13:38.156Z,20.60
2023-01-09T14:16:27.347Z,22.67
2023-01-09T14:19:01.088Z,21.64
2023-01-09T14:21:44.387Z,22.42
2023-01-09T14:24:20.355Z,22.21
2023-01-09T14:26:50.208Z,23.69
2023-01-09T14:29:39.470Z,22.40
2023-01-09T14:32:27.147Z,22.16
2023-01-09T14:35:27.247Z,22.13
2023-01-09T14:40:36.451Z,21.89
2023-01-09T14:43:14.699Z,22.36
2023-01-09T14:45:48.013Z,22.88
2023-01-09T14:48:17.256Z,22.60
2023-01-09T14:50:56.947Z,21.44
2023-01-09T14:53:33.141Z,20.30
2023-01-09T14:56:06.753Z,21.05
2023-01-09T14:58:35.602Z,21.43
2023-01-09T15:01:16.924Z,21.65
2023-01-09T15:03:52.116Z,22.72
2023-01-09T15:06:24.486Z,21.90
2023-01-09T15:08:59.293Z,21.41
2023-01-09T15:11:28.810Z,23.16
2023-01-09T15:14:00.240Z,22.35
2023-01-09T15:16:28.986Z,20.85
2023-01-09T15:18:59.422Z,20.51
2023-01-09T15:21:32.901Z,20.96
2023-01-09T15:24:20.218Z,20.84
2023-01-09T15:27:10.243Z,22.18
2023-01-09T15:29:37.418Z,20.58
2023-01-09T15:32:08.872Z,22.49
2023-01-09T15:34:37.253Z,24.12
2023-01-09T15:37:04.631Z,22.72
2023-01-09T15:39:37.469Z,22.45
2023-01-09T15:42:23.360Z,22.25
2023-01-09T15:44:53.798Z,21.46
2023-01-09T15:47:24.647Z,22.81
2023-01-09T15:49:52.607Z,23.20
2023-01-09T15:52:21.307Z,20.88
2023-01-09T15:54:49.381Z,20.26
2023-01-09T15:57:25.008Z,22.40
2023-01-09T15:59:53.165Z,24.20
2023-01-09T16:02:44.282Z,23.19
2023-01-09T16:05:16.186Z,24.76
2023-01-09T16:07:51.354Z,23.54
2023-01-09T16:10:30.368Z,23.27
2023-01-09T16:12:58.701Z,24.84
2023-01-09T16:15:35.087Z,23.90
2023-01-09T16:18:15.418Z,24.72
2023-01-09T16:20:43.644Z,24.78
2023-01-09T16:23:28.670Z,25.77
2023-01-09T16:26:10.427Z,25.03
2023-01-09T16:28:40.814Z,24.42
2023-01-09T16:31:20.142Z,24.27
2023-01-09T16:33:50.224Z,25.10
2023-01-09T16:36:17.570Z,25.17
2023-01-09T16:38:46.142Z,25.35
2023-01-09T16:41:40.083Z,21.86
2023-01-09T16:44:12.489Z,24.66
2023-01-09T16:46:44.907Z,24.17
2023-01-09T16:49:30.064Z,26.07
2023-01-09T16:51:57.756Z,24.53
2023-01-09T16:54:24.505Z,26.02
2023-01-09T16:56:54.303Z,24.43
2023-01-09T16:59:27.784Z,25.34
2023-01-09T17:01:55.042Z,25.91
2023-01-09T17:04:23.808Z,25.69
2023-01-09T17:06:52.132Z,24.18
2023-01-09T17:09:25.886Z,26.49
2023-01-09T17:11:54.428Z,25.51
2023-01-09T17:14:22.249Z,26.36
2023-01-09T17:16:49.413Z,25.90
2023-01-09T17:19:19.505Z,26.46
2023-01-09T17:21:46.754Z,26.91
2023-01-09T17:24:32.667Z,24.60
2023-01-09T17:27:20.648Z,25.26
2023-01-09T17:29:48.451Z,24.64
2023-01-09T17:32:16.828Z,24.69
2023-01-09T17:34:44.478Z,24.75
2023-01-09T17:37:16.963Z,24.54
2023-01-09T17:39:45.240Z,23.18
2023-01-09T17:42:13.204Z,25.08
2023-01-09T17:44:39.927Z,24.65
2023-01-09T17:47:14.871Z,25.46
2023-01-09T17:49:42.383Z,25.85
2023-01-09T17:52:09.853Z,24.48
2023-01-09T17:54:37.627Z,25.88
2023-01-09T17:57:05.071Z,25.05
2023-01-09T17:59:32.310Z,24.03
2023-01-09T18:01:59.986Z,25.36
2023-01-09T18:04:26.790Z,23.98
2023-01-09T18:06:54.625Z,24.11
2023-01-09T18:09:21.904Z,25.53
2023-01-09T18:11:48.800Z,28.13
2023-01-09T18:14:16.013Z,26.45
2023-01-09T18:16:45.083Z,24.97
2023-01-09T18:19:11.866Z,25.78
2023-01-09T18:21:39.055Z,23.58
2023-01-09T18:24:06.221Z,24.00
2023-01-09T18:26:32.966Z,22.92
2023-01-09T18:29:00.543Z,24.37
2023-01-09T18:31:30.052Z,24.24
2023-01-09T18:33:58.916Z,25.14
2023-01-09T18:36:30.855Z,26.13
2023-01-09T18:39:00.646Z,24.68
2023-01-09T18:41:28.005Z,25.99
2023-01-09T18:43:57.709Z,25.92
2023-01-09T18:46:26.520Z,25.54
2023-01-09T18:48:54.520Z,26.54
2023-01-09T18:51:22.566Z,26.40
2023-01-09T18:53:51.237Z,23.73
2023-01-09T18:56:19.443Z,25.76
2023-01-09T18:58:47.360Z,25.85
2023-01-09T19:01:15.397Z,24.05
2023-01-09T19:03:42.478Z,25.40
2023-01-09T19:06:09.983Z,27.43
2023-01-09T19:08:37.691Z,26.84
2023-01-09T19:11:05.171Z,24.87
2023-01-09T19:13:34.689Z,25.25
2023-01-09T19:16:02.319Z,24.46
2023-01-09T19:18:32.425Z,25.84
2023-01-09T19:20:59.335Z,25.71
2023-01-09T19:23:26.127Z,26.66
2023-01-09T19:25:54.847Z,26.06
2023-01-09T19:28:21.760Z,25.43
2023-01-09T19:30:55.717Z,26.43
2023-01-09T19:33:24.827Z,26.99
2023-01-09T19:35:53.074Z,25.56
2023-01-09T19:38:22.815Z,24.80
2023-01-09T19:40:49.992Z,27.44
2023-01-09T19:43:25.818Z,26.71
2023-01-09T19:45:55.682Z,28.96
2023-01-09T19:48:24.137Z,28.91
2023-01-09T19:50:51.154Z,27.05
2023-01-09T19:53:18.500Z,29.17
2023-01-09T19:55:46.015Z,28.80
2023-01-09T19:58:12.784Z,27.26
2023-01-09T20:00:39.469Z,25.44
2023-01-09T20:03:06.385Z,26.90
2023-01-09T20:05:33.657Z,28.56
2023-01-09T20:08:05.667Z,25.92
2023-01-09T20:10:33.523Z,26.86
2023-01-09T20:13:01.405Z,26.13
2023-01-09T20:15:28.141Z,28.39
2023-01-09T20:17:55.552Z,26.89
2023-01-09T20:20:22.225Z,28.19
2023-01-09T20:22:48.939Z,27.26
2023-01-09T20:25:16.893Z,27.64
2023-01-09T20:27:43.726Z,26.72
2023-01-09T20:30:11.375Z,28.00
2023-01-09T20:32:38.608Z,30.15
2023-01-09T20:35:05.781Z,27.81
2023-01-09T20:37:32.792Z,28.03
2023-01-09T20:40:00.658Z,26.88
2023-01-09T20:42:27.453Z,27.45
2023-01-09T20:44:54.451Z,28.08
2023-01-09T20:47:22.439Z,24.72
2023-01-09T20:49:49.203Z,28.28
2023-01-09T20:52:16.781Z,27.21
2023-01-09T20:54:45.690Z,28.89
2023-01-09T20:57:12.452Z,27.51
2023-01-09T20:59:39.213Z,25.80
2023-01-09T21:02:07.603Z,27.90
2023-01-09T21:04:34.549Z,25.10
2023-01-09T21:07:02.142Z,26.50
2023-01-09T21:09:29.241Z,26.36
2023-01-09T21:11:56.196Z,25.98
2023-01-09T21:14:23.631Z,26.61
2023-01-09T21:16:54.722Z,28.13
2023-01-09T21:19:22.922Z,28.67
2023-01-09T21:21:52.223Z,26.91
2023-01-09T21:24:19.912Z,25.35
2023-01-09T21:26:47.309Z,27.59
2023-01-09T21:29:14.107Z,26.86
2023-01-09T21:31:41.359Z,27.88
2023-01-09T21:34:08.807Z,28.50
2023-01-09T21:36:36.176Z,26.73
2023-01-09T21:39:07.613Z,27.21
2023-01-09T21:41:53.917Z,26.33
2023-01-09T21:44:39.437Z,27.75
2023-01-09T21:47:06.288Z,28.16
2023-01-09T21:49:35.047Z,29.34
2023-01-09T21:52:07.185Z,25.76
2023-01-09T21:54:34.212Z,27.24
2023-01-09T21:57:01.814Z,27.18
2023-01-09T21:59:29.192Z,27.24
2023-01-09T22:01:56.511Z,29.41
2023-01-09T22:04:26.705Z,28.11
2023-01-09T22:06:54.092Z,27.99
2023-01-09T22:09:21.185Z,27.53
2023-01-09T22:11:48.109Z,28.97
2023-01-09T22:14:17.667Z,30.01
2023-01-09T22:16:46.081Z,28.37
2023-01-09T22:19:14.400Z,26.77
2023-01-09T22:21:41.607Z,29.79
2023-01-09T22:24:12.555Z,29.05
2023-01-09T22:26:39.584Z,30.51
2023-01-09T22:29:06.372Z,26.21
2023-01-09T22:31:33.401Z,28.68
2023-01-09T22:34:02.710Z,29.47
2023-01-09T22:36:31.322Z,28.77
2023-01-09T22:39:00.364Z,27.77
2023-01-09T22:41:29.742Z,27.39
2023-01-09T22:43:57.042Z,28.58
2023-01-09T22:46:24.383Z,27.42
2023-01-09T22:48:51.372Z,27.48
2023-01-09T22:51:20.611Z,29.74
2023-01-09T22:53:47.849Z,27.86
2023-01-09T22:56:18.073Z,31.63
2023-01-09T22:59:00.810Z,29.35
2023-01-09T23:01:28.517Z,30.11
2023-01-09T23:03:55.302Z,31.14
2023-01-09T23:06:23.848Z,29.92
2023-01-09T23:08:53.332Z,30.21
2023-01-09T23:11:43.074Z,30.63
2023-01-09T23:14:11.220Z,29.19
2023-01-09T23:16:38.419Z,31.27
2023-01-09T23:19:14.569Z,31.18
2023-01-09T23:21:42.323Z,30.43
2023-01-09T23:24:09.527Z,30.02
2023-01-09T23:26:38.704Z,29.75
2023-01-09T23:29:09.517Z,33.54
2023-01-09T23:31:37.377Z,30.00
2023-01-09T23:34:08.539Z,30.58
2023-01-09T23:36:35.694Z,29.48
2023-01-09T23:39:04.367Z,29.57
2023-01-09T23:41:49.650Z,29.49
2023-01-09T23:44:16.888Z,31.10
2023-01-09T23:46:43.710Z,30.00
2023-01-09T23:49:10.568Z,29.08
2023-01-09T23:51:37.415Z,34.89
2023-01-09T23:54:04.530Z,29.39
2023-01-09T23:56:33.840Z,27.08
2023-01-09T23:59:06.471Z,27.39
